^^
Station Historical Data
Daily Summary for November 3, 2017 Units:  Metric    English   Both
« Previous Day
Next Day »
Daily Weekly Monthly Yearly Custom
  High: Low: Average:
Temperature: 32.1 °C 16.6 °C 24.6 °C
Dew Point: 15.1 °C 10 °C 11.9 °C
Humidity: 90% 34% 47%
Wind Speed: 28.8km/h 0km/h 18.2km/h
Wind Gust: 32.2km/h - -
Wind- - SSW
Pressure: 1015.8 hPa 1009 hPa -
Precipitation: 0 mm    
Historical Graphs
 
 
Tabular Data for November 3, 2017
Time Temperature Dew Point Pressure Wind Wind Speed Wind Gust Humidity Rainfall Rate (Hourly) solar Conditions
06:37 16.9 °C 15.1 °C 1010.7 hPa SSE 13 km/h 19.3 km/h 89% 0 mm 62.0 W/m2
08:34 16.6 °C 15 °C 1012.8 hPa South 7.9 km/h 14.5 km/h 90% 0 mm 258.0 W/m2
15:14 31.4 °C 14.5 °C 1010 hPa Calm   4.8 km/h 36% 0 mm 626.0 W/m2
15:30 31.7 °C 13.9 °C 1009.4 hPa West 28.8 km/h 29 km/h 34% 0 mm 758.0 W/m2
15:44 32.1 °C 14.7 °C 1009 hPa SSW 17.7 km/h 22.5 km/h 35% 0 mm 708.0 W/m2
16:25 31.4 °C 14.1 °C 1009.4 hPa SSW 16.3 km/h 25.7 km/h 35% 0 mm 490.0 W/m2
16:40 30.6 °C 13.8 °C 1009.7 hPa SSW 22.7 km/h 32.2 km/h 36% 0 mm 461.0 W/m2
17:30 29.2 °C 13 °C 1010 hPa SSW 20.9 km/h 30.6 km/h 37% 0 mm 288.0 W/m2
17:35 29.3 °C 12.7 °C 1010 hPa SSW 28.8 km/h 30.6 km/h 36% 0 mm 267.0 W/m2
18:50 27.2 °C 11.2 °C 1011.4 hPa South 14.3 km/h 24.1 km/h 37% 0 mm 21.0 W/m2
19:03 26.4 °C 11.3 °C 1011.4 hPa SSW 19.5 km/h 22.5 km/h 39% 0 mm 9.0 W/m2
19:10 25.8 °C 10.8 °C 1011.4 hPa SSW 22.7 km/h 25.7 km/h 39% 0 mm 0.0 W/m2
19:14 25.8 °C 10.8 °C 1011.4 hPa SSW 22.7 km/h 25.7 km/h 39% 0 mm 0.0 W/m2
19:45 23.8 °C 10.5 °C 1012.1 hPa SSW 14.3 km/h 30.6 km/h 43% 0 mm 0.0 W/m2
20:06 22.8 °C 10.6 °C 1012.8 hPa SSW 25.9 km/h 25.9 km/h 46% 0 mm 0.0 W/m2
20:27 22.2 °C 10.4 °C 1013.4 hPa SSW 16.3 km/h 22.5 km/h 47% 0 mm 0.0 W/m2
20:36 21.6 °C 10.4 °C 1013.4 hPa SSW 20.9 km/h 27.4 km/h 49% 0 mm 0.0 W/m2
20:51 21 °C 10.2 °C 1013.8 hPa SSW 16.3 km/h 24.1 km/h 50% 0 mm 0.0 W/m2
20:58 21 °C 10.2 °C 1013.8 hPa SSW 16.3 km/h 24.1 km/h 50% 0 mm 0.0 W/m2
21:12 20.6 °C 10.4 °C 1013.8 hPa SSW 22.7 km/h 25.7 km/h 52% 0 mm 0.0 W/m2
21:58 19.4 °C 10.1 °C 1015.1 hPa SW 14.3 km/h 24.1 km/h 55% 0 mm 0.0 W/m2
22:25 18.8 °C 10.1 °C 1015.5 hPa SW 17.7 km/h 17.7 km/h 57% 0 mm 0.0 W/m2
22:33 18.7 °C 10 °C 1015.8 hPa SSW 19.5 km/h 19.5 km/h 57% 0 mm 0.0 W/m2
Canyon Roadhouse, Fishriver Canyon, Namibia
Compliments of Weather Underground - 1.75 mb